Los Angeles, CA (90016)

12:14 PM PST on December 06, 2016 (GMT -0800)
CBS Radio, Venice and Fairfax | | Change Station

Elev 97 ft 34.04 °N, 118.37 °W | Updated 4 minutes ago

Mostly Cloudy
Mostly Cloudy
67.4 °F
Feels Like 67.4 °F
N
0.0
Wind Variable Wind from West
Gusts 0.0 mph

Today
High -- | Low -- °F
--% Chance of Precip.
Yesterday
High -- | Low -- °F
Precip. -- in
Pressure 29.99 in
Visibility 10.0 miles
Clouds Mostly Cloudy 3200 ft
Dew Point 50 °F
Humidity 54%
Rainfall 0.00 in
Snow Depth Not available.
6:45 AM 4:43 PM
Waxing Crescent, 44% visible
METAR KSMO 061951Z 21005KT 10SM BKN032 17/09 A2998 RMK AO2 SLP153 T01670094
Pressure 29.99 in
Visibility 10.0 miles
Clouds Mostly Cloudy 3200 ft
Dew Point 50 °F
Humidity 54%
Rainfall 0.00 in
Snow Depth Not available.
6:45 AM 4:43 PM
Waxing Crescent, 44% visible
METAR KSMO 061951Z 21005KT 10SM BKN032 17/09 A2998 RMK AO2 SLP153 T01670094

10-Day Weather Forecast

Almanac

Astronomy

Dec. 06, 2016 Rise Set
Actual Time
Civil Twilight
Nautical Twilight
Astronomical Twilight
Moon
Length of Visible Light
Length of Day
Tomorrow will be .
, % of the Moon is Illuminated

Today's Extremes

State Highs State Lows

Community

WunderPhotos

Upload Photos

1,956,022 photos uploaded!

WunderBlog® & News

Nearby

Air Quality

  Air Quality AQ Index Pollutant
Not available.

Snow Depth

Station Depth Elevation

Earthquake Activity

City Distance Mag. Time & Date
Minimum magnitude displayed is 2.5.

Coastal Water Temperatures

Place Temperature

Stations

Nearby Weather Stations

Station Location Temp. Windchill Dew Point Humidity Wind Precip. Elev Updated Type
                   

Watches & Warnings

There are currently no watches in effect.